createdAt,value
2019-01-18T00:01:51.280Z,59.90
2019-01-18T00:06:56.290Z,59.90
2019-01-18T00:12:01.020Z,59.80
2019-01-18T00:17:06.262Z,59.80
2019-01-18T00:22:11.109Z,59.80
2019-01-18T00:27:15.925Z,59.70
2019-01-18T00:32:21.025Z,59.70
2019-01-18T00:37:26.058Z,59.70
2019-01-18T00:42:30.964Z,59.60
2019-01-18T00:47:35.836Z,59.50
2019-01-18T00:52:40.782Z,60.10
2019-01-18T00:57:45.717Z,59.40
2019-01-18T01:02:50.608Z,59.40
2019-01-18T01:07:55.387Z,59.40
2019-01-18T01:13:00.231Z,59.40
2019-01-18T01:18:05.243Z,59.50
2019-01-18T01:23:10.322Z,59.50
2019-01-18T01:28:15.129Z,59.60
2019-01-18T01:33:20.065Z,59.70
2019-01-18T01:38:25.284Z,59.80
2019-01-18T01:43:30.024Z,59.90
2019-01-18T01:48:35.125Z,60.00
2019-01-18T01:53:39.914Z,60.10
2019-01-18T01:58:45.621Z,60.20
2019-01-18T02:03:50.376Z,60.20
2019-01-18T02:08:55.458Z,60.30
2019-01-18T02:14:00.369Z,60.40
2019-01-18T02:19:05.213Z,60.30
2019-01-18T02:24:10.020Z,60.30
2019-01-18T02:29:15.072Z,60.20
2019-01-18T02:34:20.037Z,60.20
2019-01-18T02:39:25.399Z,60.10
2019-01-18T02:44:30.201Z,60.20
2019-01-18T02:49:35.030Z,60.30
2019-01-18T02:54:40.124Z,60.40
2019-01-18T02:59:45.565Z,60.50
2019-01-18T03:04:50.931Z,60.50
2019-01-18T03:09:55.855Z,60.60
2019-01-18T03:15:00.950Z,61.40
2019-01-18T03:20:07.438Z,60.70
2019-01-18T03:25:17.717Z,60.60
2019-01-18T03:30:23.126Z,60.60
2019-01-18T03:35:28.020Z,60.40
2019-01-18T03:40:33.049Z,60.30
2019-01-18T03:45:37.887Z,60.20
2019-01-18T03:50:42.614Z,60.20
2019-01-18T03:55:47.717Z,60.20
2019-01-18T04:00:52.557Z,60.10
2019-01-18T04:05:57.297Z,60.20
2019-01-18T04:11:02.183Z,60.20
2019-01-18T04:16:07.234Z,60.20
2019-01-18T04:21:11.969Z,60.10
2019-01-18T04:26:16.749Z,60.10
2019-01-18T04:31:21.516Z,60.10
2019-01-18T04:36:26.391Z,60.20
2019-01-18T04:41:31.352Z,60.30
2019-01-18T04:46:36.085Z,60.30
2019-01-18T04:51:41.140Z,60.40
2019-01-18T04:56:45.871Z,60.40
2019-01-18T05:01:50.919Z,60.50
2019-01-18T05:06:55.710Z,60.60
2019-01-18T05:12:00.442Z,60.60
2019-01-18T05:17:05.496Z,60.60
2019-01-18T05:22:10.216Z,60.60
2019-01-18T05:27:14.953Z,60.60
2019-01-18T05:32:19.725Z,61.30
2019-01-18T05:37:24.854Z,60.60
2019-01-18T05:42:29.585Z,60.60
2019-01-18T05:47:34.490Z,60.60
2019-01-18T05:52:39.274Z,60.60
2019-01-18T05:57:44.362Z,60.40
2019-01-18T06:02:49.179Z,60.40
2019-01-18T06:07:54.250Z,60.30
2019-01-18T06:12:59.138Z,60.30
2019-01-18T06:18:03.965Z,60.20
2019-01-18T06:23:09.006Z,60.10
2019-01-18T06:28:14.422Z,60.20
2019-01-18T06:33:26.077Z,60.20
2019-01-18T06:38:32.393Z,60.20
2019-01-18T06:43:37.102Z,60.20
2019-01-18T06:48:42.405Z,60.20
2019-01-18T06:53:47.211Z,60.00
2019-01-18T06:58:53.001Z,60.00
2019-01-18T07:03:58.956Z,59.80
2019-01-18T07:09:06.857Z,59.70
2019-01-18T07:14:11.634Z,59.60
2019-01-18T07:19:16.466Z,59.80
2019-01-18T07:24:21.273Z,60.00
2019-01-18T07:29:26.044Z,59.70
2019-01-18T07:34:31.109Z,59.80
2019-01-18T07:39:36.030Z,59.80
2019-01-18T07:44:40.874Z,59.70
2019-01-18T07:49:45.957Z,59.70
2019-01-18T07:54:50.795Z,59.70
2019-01-18T07:59:55.574Z,59.70
2019-01-18T08:05:00.594Z,59.80
2019-01-18T08:10:07.285Z,59.70
2019-01-18T08:15:15.934Z,59.70
2019-01-18T08:20:22.926Z,59.60
2019-01-18T08:25:28.693Z,59.90
2019-01-18T08:30:33.854Z,60.40
2019-01-18T08:35:38.988Z,60.30
2019-01-18T08:40:44.074Z,60.10
2019-01-18T08:45:51.658Z,60.10
2019-01-18T08:50:56.561Z,60.10
2019-01-18T08:56:01.467Z,60.20
2019-01-18T09:01:06.568Z,60.50
2019-01-18T09:06:11.623Z,60.60
2019-01-18T09:11:16.542Z,60.60
2019-01-18T09:16:21.422Z,60.60
2019-01-18T09:21:26.398Z,60.40
2019-01-18T09:26:31.274Z,60.30
2019-01-18T09:31:42.286Z,60.40
2019-01-18T09:36:42.833Z,60.30
2019-01-18T09:41:48.644Z,60.20
2019-01-18T09:46:53.713Z,60.10
2019-01-18T09:51:58.575Z,60.20
2019-01-18T09:57:03.356Z,60.20
2019-01-18T10:02:08.245Z,60.20
2019-01-18T10:07:12.985Z,60.10
2019-01-18T10:12:18.079Z,60.00
2019-01-18T10:17:22.907Z,60.10
2019-01-18T10:22:27.706Z,60.20
2019-01-18T10:27:32.406Z,60.10
2019-01-18T10:32:37.346Z,60.00
2019-01-18T10:37:42.288Z,59.90
2019-01-18T10:42:48.334Z,59.90
2019-01-18T10:47:53.210Z,59.70
2019-01-18T10:52:58.094Z,59.70
2019-01-18T10:58:02.920Z,59.60
2019-01-18T11:03:09.078Z,59.70
2019-01-18T11:08:17.518Z,59.60
2019-01-18T11:13:20.708Z,59.50
2019-01-18T11:18:25.445Z,59.40
2019-01-18T11:23:30.302Z,59.40
2019-01-18T11:28:35.331Z,59.40
2019-01-18T11:33:40.191Z,59.30
2019-01-18T11:38:45.186Z,59.00
2019-01-18T11:43:49.941Z,58.60
2019-01-18T11:48:55.222Z,58.10
2019-01-18T11:54:00.067Z,58.10
2019-01-18T11:59:04.957Z,57.70
2019-01-18T12:04:10.156Z,57.70
2019-01-18T12:09:14.977Z,57.40
2019-01-18T12:14:19.742Z,57.30
2019-01-18T12:19:24.640Z,56.20
2019-01-18T12:24:29.602Z,57.10
2019-01-18T12:29:34.740Z,57.40
2019-01-18T12:34:39.597Z,57.50
2019-01-18T12:39:47.635Z,57.50
2019-01-18T12:44:52.366Z,57.50
2019-01-18T12:49:57.104Z,57.40
2019-01-18T12:55:01.940Z,56.90
2019-01-18T13:00:10.181Z,56.80
2019-01-18T13:05:17.812Z,57.10
2019-01-18T13:10:22.925Z,57.40
2019-01-18T13:15:35.022Z,57.30
2019-01-18T13:20:39.911Z,57.50
2019-01-18T13:25:44.862Z,57.30
2019-01-18T13:30:49.706Z,57.50
2019-01-18T13:35:54.586Z,57.40
2019-01-18T13:40:59.535Z,57.40
2019-01-18T13:46:04.510Z,57.20
2019-01-18T13:51:09.519Z,56.60
2019-01-18T13:56:15.263Z,56.90
2019-01-18T14:01:20.184Z,56.90
2019-01-18T14:06:25.314Z,55.60
2019-01-18T14:11:30.585Z,56.10
2019-01-18T14:16:35.627Z,56.60
2019-01-18T14:21:40.501Z,56.70
2019-01-18T14:26:45.492Z,56.60
2019-01-18T14:37:25.551Z,56.00
2019-01-18T14:42:43.792Z,55.70
2019-01-18T14:48:29.880Z,55.60
2019-01-18T14:53:36.429Z,55.30
2019-01-18T14:58:53.970Z,55.00
2019-01-18T15:04:01.775Z,54.70
2019-01-18T15:09:11.534Z,54.90
2019-01-18T15:14:18.457Z,54.60
2019-01-18T15:19:23.359Z,54.80
2019-01-18T15:24:28.266Z,54.90
2019-01-18T15:29:33.185Z,55.00
2019-01-18T15:34:38.497Z,54.90
2019-01-18T15:39:43.262Z,54.70
2019-01-18T15:44:48.217Z,54.60
2019-01-18T15:49:53.139Z,54.40
2019-01-18T15:54:58.059Z,54.50
2019-01-18T16:00:02.891Z,54.60
2019-01-18T16:05:08.235Z,54.70
2019-01-18T16:10:13.870Z,55.00
2019-01-18T16:15:19.983Z,55.20
2019-01-18T16:20:24.914Z,55.30
2019-01-18T16:25:30.031Z,55.40
2019-01-18T16:30:36.047Z,55.10
2019-01-18T16:35:41.041Z,55.10
2019-01-18T16:40:46.212Z,55.10
2019-01-18T16:45:53.249Z,55.40
2019-01-18T16:51:00.180Z,55.40
2019-01-18T16:56:05.971Z,55.50
2019-01-18T17:01:14.290Z,55.30
2019-01-18T17:06:21.645Z,55.50
2019-01-18T17:11:26.805Z,55.60
2019-01-18T17:16:31.625Z,55.60
2019-01-18T17:21:36.872Z,55.60
2019-01-18T17:26:41.749Z,55.70
2019-01-18T17:31:48.702Z,55.60
2019-01-18T17:37:08.102Z,55.60
2019-01-18T17:43:07.782Z,55.60
2019-01-18T17:48:37.618Z,55.60
2019-01-18T17:53:51.752Z,55.70
2019-01-18T17:59:56.247Z,55.70
2019-01-18T18:06:00.169Z,55.70
2019-01-18T18:11:47.969Z,55.70
2019-01-18T18:17:29.520Z,55.30
2019-01-18T18:23:14.225Z,55.30
2019-01-18T18:29:14.861Z,55.40
2019-01-18T18:34:48.967Z,55.70
2019-01-18T18:40:06.087Z,55.70
2019-01-18T18:45:46.455Z,55.80
2019-01-18T18:51:13.670Z,55.90
2019-01-18T18:56:29.193Z,55.90
2019-01-18T19:02:13.148Z,55.90
2019-01-18T19:07:44.713Z,55.90
2019-01-18T19:13:15.470Z,55.90
2019-01-18T19:18:57.262Z,55.70
2019-01-18T19:24:20.423Z,55.80
2019-01-18T19:30:02.003Z,55.90
2019-01-18T19:35:29.179Z,55.90
2019-01-18T19:41:14.015Z,56.00
2019-01-18T19:46:49.737Z,55.90
2019-01-18T19:52:02.779Z,55.90
2019-01-18T19:57:29.579Z,56.00
2019-01-18T20:03:15.629Z,56.00
2019-01-18T20:08:38.459Z,56.00
2019-01-18T20:14:30.875Z,55.90
2019-01-18T20:20:19.777Z,56.00
2019-01-18T20:25:48.410Z,56.00
2019-01-18T20:31:58.229Z,55.90
2019-01-18T20:37:18.233Z,55.80
2019-01-18T20:42:48.285Z,55.80
2019-01-18T20:48:24.788Z,55.80
2019-01-18T20:54:00.709Z,56.10
2019-01-18T20:59:16.840Z,56.20
2019-01-18T21:05:00.853Z,56.30
2019-01-18T21:10:40.563Z,56.40
2019-01-18T21:16:11.242Z,56.30
2019-01-18T21:22:07.379Z,56.20
2019-01-18T21:27:47.370Z,56.20
2019-01-18T21:33:48.176Z,56.20
2019-01-18T21:39:42.249Z,56.10
2019-01-18T21:45:32.973Z,56.20
2019-01-18T21:51:03.847Z,56.20
2019-01-18T21:56:52.862Z,56.30
2019-01-18T22:02:16.230Z,56.30
2019-01-18T22:07:53.244Z,56.20
2019-01-18T22:13:23.505Z,56.30
2019-01-18T22:18:56.410Z,56.30
2019-01-18T22:24:28.093Z,56.30
2019-01-18T22:30:00.196Z,56.30
2019-01-18T22:35:53.778Z,56.20
2019-01-18T22:41:33.401Z,56.20
2019-01-18T22:47:17.775Z,56.10
2019-01-18T22:52:47.430Z,56.10
2019-01-18T22:58:37.137Z,56.30
2019-01-18T23:04:27.755Z,56.30
2019-01-18T23:10:28.180Z,56.20
2019-01-18T23:15:56.838Z,56.00
2019-01-18T23:21:22.068Z,56.00
2019-01-18T23:26:54.848Z,56.20
2019-01-18T23:32:25.746Z,56.20
2019-01-18T23:37:37.057Z,56.40
2019-01-18T23:43:01.664Z,56.40
2019-01-18T23:48:52.895Z,56.40
2019-01-18T23:54:24.892Z,56.40
2019-01-18T23:59:48.944Z,56.40
